createdAt,value
2017-06-09T00:00:02.222Z,15.8
2017-06-09T00:10:02.352Z,15.77
2017-06-09T00:20:02.679Z,15.69
2017-06-09T00:30:02.133Z,15.57
2017-06-09T00:40:02.635Z,15.44
2017-06-09T00:50:02.967Z,15.43
2017-06-09T01:00:02.468Z,15.47
2017-06-09T01:10:03.050Z,15.46
2017-06-09T01:20:02.748Z,15.17
2017-06-09T01:30:02.174Z,15.01
2017-06-09T01:40:02.719Z,14.92
2017-06-09T01:50:02.606Z,14.68
2017-06-09T02:00:03.079Z,14.49
2017-06-09T02:10:02.173Z,14.34
2017-06-09T02:20:02.950Z,14.28
2017-06-09T02:30:02.362Z,14.23
2017-06-09T02:40:02.839Z,14.21
2017-06-09T02:50:02.747Z,14.32
2017-06-09T03:00:02.235Z,14.42
2017-06-09T03:10:02.802Z,14.47
2017-06-09T03:20:02.588Z,14.41
2017-06-09T03:30:03.037Z,14.37
2017-06-09T03:40:02.544Z,14.32
2017-06-09T03:50:02.855Z,14.42
2017-06-09T04:00:02.317Z,14.42
2017-06-09T04:10:02.844Z,14.48
2017-06-09T04:20:02.433Z,14.51
2017-06-09T04:30:02.887Z,14.56
2017-06-09T04:40:02.723Z,14.73
2017-06-09T04:50:03.045Z,14.95
2017-06-09T05:00:02.539Z,15.11
2017-06-09T05:10:02.662Z,15.3
2017-06-09T05:20:02.431Z,15.68
2017-06-09T05:30:02.862Z,16.03
2017-06-09T05:40:02.379Z,16.35
2017-06-09T05:50:02.879Z,16.61
2017-06-09T06:00:02.385Z,16.79
2017-06-09T06:10:02.851Z,17.04
2017-06-09T06:20:02.673Z,17.26
2017-06-09T06:30:03.099Z,17.63
2017-06-09T06:40:02.671Z,18.09
2017-06-09T06:50:02.193Z,19.01
2017-06-09T07:00:02.674Z,20.51
2017-06-09T07:10:02.778Z,21.65
2017-06-09T07:20:02.814Z,22.49
2017-06-09T07:30:02.275Z,23.54
2017-06-09T07:40:02.728Z,24.48
2017-06-09T07:50:02.623Z,25.05
2017-06-09T08:00:03.118Z,25.43
2017-06-09T08:10:03.086Z,24.9
2017-06-09T08:20:02.563Z,23.28
2017-06-09T08:30:03.031Z,22.25
2017-06-09T08:40:02.544Z,22.1
2017-06-09T08:50:02.209Z,22.91
2017-06-09T09:00:02.710Z,22.93
2017-06-09T09:10:02.698Z,24.79
2017-06-09T09:20:02.365Z,26.05
2017-06-09T09:30:02.835Z,26.26
2017-06-09T09:40:02.333Z,26.57
2017-06-09T09:50:02.789Z,26.42
2017-06-09T10:00:02.279Z,26.11
2017-06-09T10:10:02.598Z,25.66
2017-06-09T10:20:02.150Z,25.81
2017-06-09T10:30:02.614Z,25.76
2017-06-09T10:40:02.451Z,25.39
2017-06-09T10:50:02.827Z,25.2
2017-06-09T11:00:02.301Z,24.64
2017-06-09T11:10:02.824Z,24.55
2017-06-09T11:20:03.084Z,24.46
2017-06-09T11:30:02.539Z,24.56
2017-06-09T11:40:03.071Z,24.44
2017-06-09T11:50:03.145Z,24.3
2017-06-09T12:00:02.659Z,24.18
2017-06-09T12:10:02.340Z,24.01
2017-06-09T12:20:02.790Z,23.87
2017-06-09T12:30:02.268Z,23.79
2017-06-09T12:40:02.779Z,24.01
2017-06-09T12:50:02.744Z,24.13
2017-06-09T13:00:02.263Z,24
2017-06-09T13:10:02.717Z,23.11
2017-06-09T13:20:02.388Z,21.66
2017-06-09T13:30:02.863Z,18.81
2017-06-09T13:40:02.587Z,16.76
2017-06-09T13:50:02.258Z,15.89
2017-06-09T14:00:02.765Z,15.28
2017-06-09T14:10:02.612Z,14.78
2017-06-09T14:20:02.319Z,14.81
2017-06-09T14:30:02.777Z,14.86
2017-06-09T14:40:02.290Z,14.86
2017-06-09T14:50:03.103Z,14.87
2017-06-09T15:00:02.547Z,15.02
2017-06-09T15:10:03.081Z,15.13
2017-06-09T15:20:02.491Z,15.28
2017-06-09T15:30:02.967Z,15.6
2017-06-09T15:40:03.088Z,15.8
2017-06-09T15:50:02.398Z,16.02
2017-06-09T16:00:02.876Z,16.45
2017-06-09T16:10:02.297Z,16.58
2017-06-09T16:40:02.644Z,17.47
2017-06-09T16:50:02.484Z,17.53
2017-06-09T17:00:02.907Z,17.46
2017-06-09T17:10:03.027Z,17.34
2017-06-09T17:20:02.732Z,16.96
2017-06-09T17:30:03.114Z,16.78
2017-06-09T17:40:02.927Z,16.59
2017-06-09T17:50:02.969Z,16.48
2017-06-09T18:00:02.438Z,16.15
2017-06-09T18:10:02.264Z,16.14
2017-06-09T18:20:02.347Z,16.16
2017-06-09T18:30:02.755Z,16.03
2017-06-09T18:40:02.264Z,15.74
2017-06-09T18:50:03.014Z,15.4
2017-06-09T19:00:02.464Z,15.25
2017-06-09T19:10:02.950Z,15.18
2017-06-09T19:20:02.287Z,15.19
2017-06-09T19:30:02.691Z,15.01
2017-06-09T19:40:02.297Z,14.83
2017-06-09T19:50:02.985Z,14.74
2017-06-09T20:00:02.414Z,14.62
2017-06-09T20:10:02.703Z,14.54
2017-06-09T20:20:02.598Z,14.41
2017-06-09T20:30:03.065Z,14.3
2017-06-09T20:40:02.692Z,14.28
2017-06-09T20:50:02.629Z,14.2
2017-06-09T21:00:03.111Z,14.11
2017-06-09T21:10:02.351Z,13.99
2017-06-09T21:20:02.945Z,13.83
2017-06-09T21:30:02.411Z,13.73
2017-06-09T21:40:02.890Z,13.59
2017-06-09T21:50:02.808Z,13.48
2017-06-09T22:00:02.318Z,13.39
2017-06-09T22:10:02.856Z,13.31
2017-06-09T22:20:02.386Z,13.2
2017-06-09T22:30:02.826Z,13.09
2017-06-09T22:40:02.393Z,12.97
2017-06-09T22:50:02.392Z,12.85
2017-06-09T23:00:02.866Z,12.77
2017-06-09T23:10:02.322Z,12.71
2017-06-09T23:20:02.199Z,12.77
2017-06-09T23:30:02.653Z,12.8
2017-06-09T23:40:02.430Z,12.73
2017-06-09T23:50:02.601Z,12.64
